Time;durP1;ratioP1;P1;durP2;ratioP2;P2;SDS_P1;SDS_P2;PMS_P1;PMS_P2;Temp;Humidity;BMP_temperature;BMP_pressure;BME280_temperature;BME280_humidity;BME280_pressure;Samples;Min_cycle;Max_cycle;Signal;HPM_P1;HPM_P2
2023/01/25 00:00:09;;;;;;;15.40;10.13;;;6.10;54.60;;;;;;5042846;28;20429;-47
2023/01/25 00:02:37;;;;;;;17.80;11.05;;;6.00;54.60;;;;;;5041537;28;20511;-46
2023/01/25 00:05:04;;;;;;;16.35;10.95;;;6.10;54.60;;;;;;5036286;28;20060;-46
2023/01/25 00:07:32;;;;;;;14.18;9.70;;;6.00;54.60;;;;;;5041816;28;20053;-46
2023/01/25 00:09:59;;;;;;;15.38;10.23;;;6.00;54.60;;;;;;5041513;28;20057;-47
2023/01/25 00:12:27;;;;;;;14.68;9.35;;;6.00;54.70;;;;;;5042987;28;20508;-45
2023/01/25 00:14:55;;;;;;;15.20;9.55;;;6.00;54.70;;;;;;5042271;28;20056;-49
2023/01/25 00:17:22;;;;;;;16.92;10.27;;;6.00;54.70;;;;;;5041418;28;20045;-45
2023/01/25 00:19:49;;;;;;;16.30;10.38;;;6.10;54.70;;;;;;5038626;28;20053;-45
2023/01/25 00:22:16;;;;;;;15.38;10.07;;;6.00;54.70;;;;;;5041786;28;20060;-47
2023/01/25 00:24:44;;;;;;;12.20;8.80;;;6.00;54.70;;;;;;5040624;28;20523;-44
2023/01/25 00:27:11;;;;;;;13.82;9.02;;;6.00;54.70;;;;;;5041902;28;20052;-44
2023/01/25 00:29:39;;;;;;;16.13;9.90;;;6.00;54.70;;;;;;5041250;28;21410;-46
2023/01/25 00:32:28;;;;;;;14.70;9.73;;;6.00;54.70;;;;;;5041256;28;20052;-48
2023/01/25 00:34:56;;;;;;;14.20;9.32;;;6.00;54.80;;;;;;5038218;28;20057;-46
2023/01/25 00:37:30;;;;;;;13.80;9.23;;;6.10;54.80;;;;;;5042133;28;20044;-48
2023/01/25 00:39:57;;;;;;;;;;;6.10;54.80;;;;;;5040806;28;20061;-45
2023/01/25 00:42:24;;;;;;;14.55;9.38;;;6.00;54.80;;;;;;5042118;28;19935;-47
2023/01/25 00:44:53;;;;;;;12.93;8.68;;;6.10;54.70;;;;;;5040169;28;20049;-45
2023/01/25 00:47:20;;;;;;;15.27;9.57;;;6.00;54.60;;;;;;5038816;28;20067;-44
2023/01/25 00:49:47;;;;;;;16.25;9.75;;;6.00;54.70;;;;;;5041202;28;20044;-47
2023/01/25 00:52:15;;;;;;;14.40;8.73;;;6.00;55.20;;;;;;5040479;28;20692;-49
2023/01/25 00:54:42;;;;;;;12.65;8.30;;;6.00;54.80;;;;;;5040348;28;20049;-46
2023/01/25 00:57:09;;;;;;;14.63;9.18;;;6.00;54.80;;;;;;5041609;28;20060;-44
2023/01/25 00:59:37;;;;;;;15.00;9.60;;;6.00;54.80;;;;;;5039005;28;20527;-46
2023/01/25 01:02:05;;;;;;;15.57;10.05;;;6.00;54.90;;;;;;5039643;28;20053;-46
2023/01/25 01:04:33;;;;;;;15.00;9.63;;;6.00;54.90;;;;;;5039892;28;20049;-47
2023/01/25 01:07:00;;;;;;;16.15;10.07;;;5.90;54.80;;;;;;5041218;28;20060;-44
2023/01/25 01:09:27;;;;;;;13.90;9.07;;;5.90;54.80;;;;;;5040787;28;20095;-44
2023/01/25 01:11:54;;;;;;;14.70;9.68;;;6.00;54.90;;;;;;5040976;28;20057;-45
2023/01/25 01:14:23;;;;;;;16.00;10.52;;;5.90;54.90;;;;;;5041128;28;20420;-46
2023/01/25 01:16:51;;;;;;;15.75;10.02;;;5.90;54.90;;;;;;5041530;28;20131;-47
2023/01/25 01:19:20;;;;;;;15.98;10.05;;;6.00;54.90;;;;;;5036065;28;20064;-47
2023/01/25 01:21:47;;;;;;;17.70;10.55;;;6.00;54.90;;;;;;5041218;28;20069;-44
2023/01/25 01:24:14;;;;;;;15.55;10.30;;;5.90;54.80;;;;;;5039510;28;20057;-45
2023/01/25 01:26:41;;;;;;;15.18;10.07;;;5.90;54.80;;;;;;5040265;28;20045;-46
2023/01/25 01:29:09;;;;;;;19.35;12.15;;;5.90;54.80;;;;;;5036315;28;20079;-46
2023/01/25 01:31:36;;;;;;;14.45;9.82;;;5.90;54.90;;;;;;5041264;28;20083;-46
2023/01/25 01:34:03;;;;;;;14.23;9.48;;;5.90;55.00;;;;;;5040638;28;20408;-46
2023/01/25 01:36:32;;;;;;;16.90;10.80;;;5.90;55.00;;;;;;5042086;28;20365;-48
2023/01/25 01:38:59;;;;;;;16.75;11.27;;;5.90;55.00;;;;;;5038546;28;20057;-46
2023/01/25 01:41:27;;;;;;;16.02;10.82;;;5.90;55.00;;;;;;5040351;28;20064;-48
2023/01/25 01:43:54;;;;;;;17.05;10.15;;;5.90;55.00;;;;;;5037283;28;20049;-45
2023/01/25 01:46:25;;;;;;;15.85;10.10;;;5.90;55.10;;;;;;5037316;28;20048;-47
2023/01/25 01:48:56;;;;;;;15.00;9.57;;;5.80;55.10;;;;;;5038649;28;20072;-44
2023/01/25 01:51:39;;;;;;;16.42;10.55;;;5.90;55.10;;;;;;5039636;28;20060;-47
2023/01/25 01:54:11;;;;;;;16.90;10.00;;;5.90;55.10;;;;;;5039238;28;20052;-47
2023/01/25 01:56:43;;;;;;;13.90;9.35;;;5.80;55.10;;;;;;5040639;28;20409;-48
2023/01/25 01:59:11;;;;;;;20.60;11.15;;;5.80;55.10;;;;;;5038553;28;20073;-43
2023/01/25 02:01:40;;;;;;;15.07;9.95;;;5.80;55.10;;;;;;5040358;28;20060;-47
2023/01/25 02:04:08;;;;;;;16.98;10.70;;;5.80;55.20;;;;;;5035774;28;20053;-43
2023/01/25 02:06:43;;;;;;;15.00;9.70;;;5.80;55.20;;;;;;5032950;28;20052;-44
2023/01/25 02:09:14;;;;;;;14.80;9.50;;;5.80;55.20;;;;;;5040500;28;20520;-46
2023/01/25 02:11:42;;;;;;;15.55;10.25;;;5.80;55.20;;;;;;5039370;28;20504;-44
2023/01/25 02:14:09;;;;;;;16.35;9.90;;;5.80;55.20;;;;;;5039014;28;20049;-45
2023/01/25 02:16:36;;;;;;;14.73;9.30;;;5.80;55.30;;;;;;5040186;28;20469;-43
2023/01/25 02:19:04;;;;;;;14.18;9.57;;;5.80;55.30;;;;;;5035768;28;20064;-47
2023/01/25 02:21:39;;;;;;;14.98;9.30;;;5.80;55.20;;;;;;5037511;28;20045;-44
2023/01/25 02:24:12;;;;;;;16.98;10.02;;;5.80;55.30;;;;;;5039302;28;20482;-46
2023/01/25 02:26:40;;;;;;;15.68;10.55;;;5.80;55.20;;;;;;5038823;28;20136;-47
2023/01/25 02:29:09;;;;;;;17.05;10.55;;;5.80;55.20;;;;;;5035854;28;20060;-46
2023/01/25 02:31:36;;;;;;;13.85;9.23;;;5.80;55.20;;;;;;5039373;28;20385;-48
2023/01/25 02:34:03;;;;;;;15.52;9.40;;;5.80;55.20;;;;;;5040083;28;20405;-43
2023/01/25 02:36:33;;;;;;;14.63;9.23;;;5.80;55.20;;;;;;5037788;28;20060;-45
2023/01/25 02:39:04;;;;;;;15.45;9.70;;;5.80;55.30;;;;;;5031892;28;20417;-47
2023/01/25 02:41:34;;;;;;;17.10;10.00;;;5.80;55.30;;;;;;5039582;28;20048;-45
2023/01/25 02:44:06;;;;;;;17.48;10.52;;;5.80;55.30;;;;;;5040553;28;20057;-46
2023/01/25 02:46:35;;;;;;;17.00;10.52;;;5.80;55.30;;;;;;5039808;28;20049;-44
2023/01/25 02:49:05;;;;;;;18.00;10.35;;;5.80;55.30;;;;;;5037072;28;20057;-48
2023/01/25 02:51:34;;;;;;;15.77;10.52;;;5.80;55.30;;;;;;5045212;28;20473;-45
2023/01/25 02:54:04;;;;;;;18.90;11.48;;;5.80;55.20;;;;;;5039439;28;20057;-44
2023/01/25 02:56:32;;;;;;;17.10;10.48;;;5.80;55.20;;;;;;5043792;28;20461;-45
2023/01/25 02:59:04;;;;;;;15.50;10.32;;;5.80;55.30;;;;;;5043046;28;20061;-49
2023/01/25 03:01:32;;;;;;;17.33;10.32;;;5.80;55.30;;;;;;5044757;28;20049;-46
2023/01/25 03:03:59;;;;;;;15.68;9.98;;;5.80;55.30;;;;;;5039474;28;20412;-45
2023/01/25 03:06:26;;;;;;;15.65;9.85;;;5.80;55.30;;;;;;5042527;28;20045;-42
2023/01/25 03:08:54;;;;;;;16.35;10.52;;;5.80;55.30;;;;;;5043889;28;20060;-45
2023/01/25 03:11:21;;;;;;;18.48;11.15;;;5.80;55.30;;;;;;5043556;28;20061;-46
2023/01/25 03:13:48;;;;;;;18.10;11.32;;;5.80;55.30;;;;;;5041877;28;20052;-46
2023/01/25 03:16:17;;;;;;;16.05;9.35;;;5.70;55.30;;;;;;5041237;28;20053;-45
2023/01/25 03:18:45;;;;;;;14.57;9.55;;;5.70;55.30;;;;;;5042763;28;20049;-46
2023/01/25 03:21:15;;;;;;;14.38;9.27;;;5.70;55.40;;;;;;5044144;28;20401;-45
2023/01/25 03:23:43;;;;;;;15.55;9.18;;;5.70;55.40;;;;;;5040812;28;20404;-49
2023/01/25 03:26:12;;;;;;;15.35;9.93;;;5.70;55.40;;;;;;5040498;28;20103;-46
2023/01/25 03:28:40;;;;;;;17.55;10.50;;;5.70;55.40;;;;;;5043379;28;20402;-47
2023/01/25 03:31:10;;;;;;;18.10;10.98;;;5.70;55.40;;;;;;5041509;28;20052;-46
2023/01/25 03:33:39;;;;;;;15.77;10.00;;;5.70;55.40;;;;;;5041699;28;20052;-47
2023/01/25 03:36:07;;;;;;;14.70;9.93;;;5.70;55.50;;;;;;5040841;28;20049;-46
2023/01/25 03:38:35;;;;;;;14.55;9.45;;;5.70;55.50;;;;;;5041392;28;20056;-49
2023/01/25 03:41:03;;;;;;;16.92;10.63;;;5.70;55.50;;;;;;5042904;28;20075;-43
2023/01/25 03:43:30;;;;;;;15.35;9.40;;;5.70;55.50;;;;;;5040548;28;20064;-49
2023/01/25 03:45:59;;;;;;;13.95;9.25;;;5.70;55.50;;;;;;5040554;28;20052;-45
2023/01/25 03:48:27;;;;;;;14.10;9.50;;;5.70;55.50;;;;;;5042054;28;20049;-47
2023/01/25 03:50:58;;;;;;;14.43;9.52;;;5.70;55.60;;;;;;5041600;28;20083;-45
2023/01/25 03:53:28;;;;;;;14.52;9.48;;;5.70;55.60;;;;;;5043669;28;20049;-47
2023/01/25 03:55:57;;;;;;;15.30;9.90;;;5.70;55.60;;;;;;5040245;28;20056;-46
2023/01/25 03:58:24;;;;;;;16.88;10.52;;;5.70;55.60;;;;;;5041619;28;20060;-46
2023/01/25 04:00:54;;;;;;;17.15;10.30;;;5.70;55.60;;;;;;5041506;28;20604;-49
2023/01/25 04:03:22;;;;;;;20.50;11.60;;;5.70;55.60;;;;;;5037967;28;20048;-46
2023/01/25 04:05:49;;;;;;;17.48;10.40;;;5.70;55.60;;;;;;5039870;28;20240;-48
2023/01/25 04:08:18;;;;;;;17.65;10.70;;;5.70;55.60;;;;;;5037316;28;20059;-49
2023/01/25 04:10:51;;;;;;;18.67;10.43;;;5.70;55.70;;;;;;5041592;28;20049;-46
2023/01/25 04:13:18;;;;;;;19.92;11.30;;;5.70;55.60;;;;;;5041649;28;20060;-47
2023/01/25 04:15:45;;;;;;;18.17;10.80;;;5.70;55.60;;;;;;5040158;28;20056;-45
2023/01/25 04:18:12;;;;;;;17.63;11.05;;;5.70;55.60;;;;;;5037950;28;20056;-45
2023/01/25 04:20:40;;;;;;;20.10;11.73;;;5.70;55.60;;;;;;5042373;28;20057;-50
2023/01/25 04:23:08;;;;;;;18.17;10.32;;;5.70;55.60;;;;;;5041488;28;20080;-47
2023/01/25 04:25:37;;;;;;;18.67;11.40;;;5.70;55.60;;;;;;5039833;28;20543;-49
2023/01/25 04:28:05;;;;;;;15.90;10.25;;;5.70;55.60;;;;;;5039607;28;20041;-48
2023/01/25 04:30:32;;;;;;;19.00;10.60;;;5.70;55.60;;;;;;5042461;28;20057;-44
2023/01/25 04:33:03;;;;;;;16.45;10.23;;;5.70;55.60;;;;;;5040452;28;20057;-47
2023/01/25 04:35:31;;;;;;;17.45;10.25;;;5.70;55.70;;;;;;5041748;28;20060;-44
2023/01/25 04:37:59;;;;;;;17.40;10.85;;;5.70;55.70;;;;;;5037698;28;20056;-48
2023/01/25 04:40:27;;;;;;;17.02;10.30;;;5.70;55.80;;;;;;5040775;28;20493;-46
2023/01/25 04:42:55;;;;;;;19.55;11.50;;;5.70;55.80;;;;;;5042183;28;20068;-44
2023/01/25 04:45:23;;;;;;;20.20;11.02;;;5.70;55.80;;;;;;5035950;28;21409;-50
2023/01/25 04:47:55;;;;;;;18.98;10.98;;;5.70;55.80;;;;;;5041535;28;20421;-45
2023/01/25 04:50:22;;;;;;;20.77;12.18;;;5.70;55.80;;;;;;5040243;28;20056;-45
2023/01/25 04:52:49;;;;;;;16.13;9.75;;;5.70;55.90;;;;;;5040864;28;20489;-48
2023/01/25 04:55:17;;;;;;;15.60;9.77;;;5.70;55.80;;;;;;5036426;28;20045;-47
2023/01/25 04:57:44;;;;;;;16.13;9.80;;;5.70;55.80;;;;;;5040886;28;20507;-45
2023/01/25 05:00:13;;;;;;;18.20;10.05;;;5.70;55.90;;;;;;5040080;28;20053;-46
2023/01/25 05:02:41;;;;;;;14.85;8.85;;;5.70;55.90;;;;;;5039148;28;20075;-48
2023/01/25 05:05:09;;;;;;;14.35;8.88;;;5.70;55.90;;;;;;5040909;28;20053;-44
2023/01/25 05:07:36;;;;;;;20.63;11.57;;;5.60;55.90;;;;;;5042363;28;20049;-49
2023/01/25 05:10:04;;;;;;;18.17;10.45;;;5.60;55.80;;;;;;5040129;28;20053;-47
2023/01/25 05:12:31;;;;;;;14.18;8.82;;;5.60;55.80;;;;;;5038656;28;20057;-45
2023/01/25 05:14:59;;;;;;;15.45;9.35;;;5.60;55.90;;;;;;5041843;28;20052;-48
2023/01/25 05:17:27;;;;;;;20.80;10.57;;;5.60;55.90;;;;;;5032238;28;20056;-49
2023/01/25 05:19:55;;;;;;;15.70;9.25;;;5.60;55.90;;;;;;5040051;28;20053;-47
2023/01/25 05:22:22;;;;;;;15.80;8.98;;;5.60;55.90;;;;;;5040733;28;20072;-49
2023/01/25 05:24:49;;;;;;;19.25;11.35;;;5.60;55.90;;;;;;5038817;28;20056;-49
2023/01/25 05:27:18;;;;;;;18.20;10.25;;;5.60;56.00;;;;;;5037697;28;20063;-46
2023/01/25 05:29:46;;;;;;;18.83;10.30;;;5.60;56.00;;;;;;5039534;28;20447;-47
2023/01/25 05:32:15;;;;;;;22.48;11.35;;;5.60;56.50;;;;;;5035576;28;20063;-49
2023/01/25 05:34:44;;;;;;;19.52;10.93;;;5.60;56.10;;;;;;5034072;28;20045;-49
2023/01/25 05:37:13;;;;;;;21.17;10.90;;;5.60;56.10;;;;;;5037938;28;20052;-51
2023/01/25 05:39:41;;;;;;;17.90;9.80;;;5.60;56.10;;;;;;5039334;28;20492;-47
2023/01/25 05:42:11;;;;;;;22.80;11.75;;;5.60;56.10;;;;;;5038758;28;20945;-49
2023/01/25 05:44:39;;;;;;;18.77;10.57;;;5.60;56.10;;;;;;5038865;28;20057;-46
2023/01/25 05:47:06;;;;;;;19.17;10.73;;;5.60;56.10;;;;;;5039915;28;20053;-49
2023/01/25 05:49:33;;;;;;;44.95;21.05;;;5.60;56.10;;;;;;5038767;28;20523;-48
2023/01/25 05:52:02;;;;;;;36.05;17.85;;;5.60;56.10;;;;;;5035555;28;20477;-46
2023/01/25 05:54:30;;;;;;;24.30;13.25;;;5.60;56.10;;;;;;5038832;28;20584;-49
2023/01/25 05:56:57;;;;;;;21.33;12.02;;;5.60;56.10;;;;;;5042560;28;20417;-45
2023/01/25 05:59:26;;;;;;;19.48;11.40;;;5.60;56.10;;;;;;5041254;28;20060;-48
2023/01/25 06:01:53;;;;;;;19.70;11.27;;;5.60;56.20;;;;;;5042799;28;20056;-50
2023/01/25 06:04:21;;;;;;;16.88;9.98;;;5.60;56.20;;;;;;5040741;28;20057;-49
2023/01/25 06:06:48;;;;;;;22.85;12.80;;;5.60;56.20;;;;;;5041017;28;20049;-45
2023/01/25 06:09:17;;;;;;;16.52;10.05;;;5.60;56.20;;;;;;5038402;28;20048;-48
2023/01/25 06:11:44;;;;;;;16.85;10.05;;;5.60;56.10;;;;;;5039613;28;20045;-45
2023/01/25 06:14:12;;;;;;;18.85;10.95;;;5.60;56.20;;;;;;5039346;28;20056;-46
2023/01/25 06:16:39;;;;;;;17.98;9.88;;;5.60;56.20;;;;;;5038628;28;20413;-46
2023/01/25 06:19:07;;;;;;;18.27;10.65;;;5.60;56.20;;;;;;5040800;28;20489;-46
2023/01/25 06:21:35;;;;;;;74.20;29.20;;;5.60;56.30;;;;;;5041138;28;20485;-48
2023/01/25 06:24:03;;;;;;;49.00;21.35;;;5.60;56.30;;;;;;5032988;28;20142;-46
2023/01/25 06:26:32;;;;;;;21.27;11.60;;;5.60;56.30;;;;;;5048238;28;20485;-44
2023/01/25 06:28:59;;;;;;;16.23;10.07;;;5.60;56.30;;;;;;5042243;28;20076;-48
2023/01/25 06:31:26;;;;;;;18.27;10.82;;;5.50;56.20;;;;;;5044997;28;20059;-47
2023/01/25 06:34:23;;;;;;;16.48;9.52;;;5.60;56.20;;;;;;5045244;28;20064;-49
2023/01/25 06:36:50;;;;;;;17.98;10.32;;;5.50;56.20;;;;;;5042527;28;20066;-51
2023/01/25 06:39:17;;;;;;;18.92;10.52;;;5.50;56.20;;;;;;5039717;28;20049;-47
2023/01/25 06:41:47;;;;;;;19.95;10.95;;;5.50;56.20;;;;;;5040183;28;20052;-47
2023/01/25 06:44:14;;;;;;;20.60;10.45;;;5.50;56.30;;;;;;5043153;28;20497;-45
2023/01/25 06:46:41;;;;;;;17.35;9.75;;;5.50;56.30;;;;;;5040471;28;20052;-49
2023/01/25 06:49:10;;;;;;;17.60;10.07;;;5.50;56.30;;;;;;5043511;28;20049;-44
2023/01/25 06:51:37;;;;;;;18.65;10.40;;;5.50;56.30;;;;;;5041022;28;20053;-44
2023/01/25 06:54:04;;;;;;;19.42;11.48;;;5.50;56.30;;;;;;5040995;28;20057;-48
2023/01/25 06:56:32;;;;;;;19.08;10.10;;;5.40;56.40;;;;;;5043806;28;20057;-50
2023/01/25 06:59:01;;;;;;;22.02;11.35;;;5.40;56.40;;;;;;5044599;28;20474;-49
2023/01/25 07:01:29;;;;;;;19.02;10.73;;;5.40;56.40;;;;;;5041557;28;20059;-45
2023/01/25 07:03:58;;;;;;;19.98;10.88;;;5.40;56.50;;;;;;5042680;28;20061;-45
2023/01/25 07:06:26;;;;;;;19.52;11.20;;;5.50;56.60;;;;;;5043112;28;20056;-45
2023/01/25 07:08:53;;;;;;;18.85;9.93;;;5.50;56.60;;;;;;5041211;28;20056;-48
2023/01/25 07:11:21;;;;;;;18.65;10.00;;;5.50;56.60;;;;;;5036181;28;20076;-48
2023/01/25 07:13:48;;;;;;;18.48;10.38;;;5.40;56.60;;;;;;5042584;28;20049;-47
2023/01/25 07:16:18;;;;;;;18.75;10.07;;;5.50;56.60;;;;;;5041251;28;20488;-46
2023/01/25 07:18:46;;;;;;;15.48;9.55;;;5.50;56.60;;;;;;5039729;28;20045;-45
2023/01/25 07:21:16;;;;;;;18.38;10.32;;;5.50;56.60;;;;;;5042297;28;20393;-49
2023/01/25 07:23:43;;;;;;;18.05;10.15;;;5.50;56.60;;;;;;5042513;28;20049;-48
2023/01/25 07:26:17;;;;;;;18.33;10.43;;;5.50;56.60;;;;;;5041219;28;20064;-47
2023/01/25 07:28:45;;;;;;;18.38;10.75;;;5.50;56.60;;;;;;5041663;28;20481;-44
2023/01/25 07:31:13;;;;;;;25.33;11.73;;;5.50;56.60;;;;;;5041774;28;20057;-48
2023/01/25 07:33:42;;;;;;;19.52;10.82;;;5.50;56.50;;;;;;5039735;28;20052;-44
2023/01/25 07:36:10;;;;;;;18.10;9.63;;;5.50;56.50;;;;;;5041769;28;20049;-47
2023/01/25 07:38:38;;;;;;;19.02;10.50;;;5.50;56.50;;;;;;5037703;28;20045;-45
2023/01/25 07:41:06;;;;;;;17.52;10.63;;;5.50;56.50;;;;;;5039084;28;20485;-44
2023/01/25 07:43:33;;;;;;;16.98;9.52;;;5.50;56.50;;;;;;5038984;28;20408;-47
2023/01/25 07:46:02;;;;;;;14.80;8.77;;;5.50;56.60;;;;;;5041517;28;20068;-45
2023/01/25 07:48:31;;;;;;;18.25;9.57;;;5.50;56.50;;;;;;5041604;28;20064;-48
2023/01/25 07:51:21;;;;;;;16.60;9.05;;;5.50;56.60;;;;;;5041598;28;20061;-48
2023/01/25 07:53:50;;;;;;;17.80;9.70;;;5.50;56.60;;;;;;5039444;28;20405;-47
2023/01/25 07:56:18;;;;;;;17.52;9.30;;;5.50;56.50;;;;;;5041843;28;20052;-44
2023/01/25 07:58:46;;;;;;;18.75;9.90;;;5.50;56.60;;;;;;5039963;28;20523;-47
2023/01/25 08:01:15;;;;;;;16.65;9.10;;;5.50;56.60;;;;;;5034961;28;20635;-46
2023/01/25 08:03:43;;;;;;;16.30;8.73;;;5.50;56.60;;;;;;5040980;28;20041;-46
2023/01/25 08:06:12;;;;;;;17.67;9.95;;;5.50;56.60;;;;;;5038056;28;20053;-47
2023/01/25 08:08:42;;;;;;;16.25;10.60;;;5.50;56.60;;;;;;5038271;28;20045;-49
2023/01/25 08:11:12;;;;;;;16.40;9.60;;;5.50;56.60;;;;;;5039278;28;20517;-47
2023/01/25 08:13:40;;;;;;;15.90;8.63;;;5.50;56.60;;;;;;5037731;28;20290;-47
2023/01/25 08:16:07;;;;;;;16.85;8.85;;;5.50;56.60;;;;;;5039334;28;20052;-49
2023/01/25 08:18:34;;;;;;;15.05;8.45;;;5.50;56.60;;;;;;5041274;28;20060;-46
2023/01/25 08:21:02;;;;;;;16.33;8.93;;;5.50;56.60;;;;;;5037172;28;20053;-47
2023/01/25 08:23:30;;;;;;;14.35;8.63;;;5.50;56.60;;;;;;5043304;28;20409;-45
2023/01/25 08:26:02;;;;;;;14.20;8.73;;;5.50;56.60;;;;;;5043773;28;20056;-47
2023/01/25 08:28:29;;;;;;;16.90;9.27;;;5.50;56.60;;;;;;5043327;28;20047;-47
2023/01/25 08:31:05;;;;;;;16.27;9.05;;;5.60;56.60;;;;;;5039840;28;20057;-47
2023/01/25 08:33:32;;;;;;;13.80;8.32;;;5.60;56.60;;;;;;5041473;28;20057;-43
2023/01/25 08:35:59;;;;;;;12.68;7.93;;;5.60;56.50;;;;;;5035444;28;20057;-44
2023/01/25 08:38:26;;;;;;;16.35;9.30;;;5.60;56.50;;;;;;5040856;28;20412;-46
2023/01/25 08:40:55;;;;;;;16.25;8.80;;;5.50;56.90;;;;;;5038990;28;20053;-45
2023/01/25 08:43:23;;;;;;;14.50;8.57;;;5.50;56.40;;;;;;5040159;28;20421;-48
2023/01/25 08:46:40;;;;;;;14.60;8.18;;;5.50;56.40;;;;;;5040374;28;20056;-45
2023/01/25 08:49:09;;;;;;;16.30;8.52;;;5.50;56.40;;;;;;5037060;28;20049;-45
2023/01/25 08:51:36;;;;;;;21.52;10.27;;;5.50;56.40;;;;;;5038542;28;20056;-47
2023/01/25 08:54:04;;;;;;;17.63;9.23;;;5.50;56.50;;;;;;5037958;28;20059;-47
2023/01/25 08:56:33;;;;;;;14.88;8.95;;;5.50;56.50;;;;;;5041260;28;20509;-48
2023/01/25 08:59:00;;;;;;;15.38;8.52;;;5.50;56.50;;;;;;5039863;28;20056;-46
2023/01/25 09:01:27;;;;;;;16.20;8.75;;;5.50;56.50;;;;;;5042014;28;20052;-44
2023/01/25 09:03:55;;;;;;;15.30;8.18;;;5.40;56.40;;;;;;5042125;28;20509;-44
2023/01/25 09:06:22;;;;;;;14.43;8.07;;;5.40;56.50;;;;;;5041982;28;20061;-45
2023/01/25 09:08:49;;;;;;;13.55;6.93;;;5.50;56.60;;;;;;5037392;28;20485;-47
2023/01/25 09:11:18;;;;;;;90.07;32.90;;;5.50;56.60;;;;;;5039297;28;20052;-48
2023/01/25 09:13:47;;;;;;;36.22;15.57;;;5.40;56.50;;;;;;5039078;28;20064;-48
2023/01/25 09:16:16;;;;;;;19.60;10.10;;;5.50;56.60;;;;;;5038613;28;20064;-44
2023/01/25 09:18:44;;;;;;;18.40;9.23;;;5.50;56.50;;;;;;5037087;28;20053;-45
2023/01/25 09:21:14;;;;;;;14.38;8.50;;;5.50;56.50;;;;;;5039795;28;20393;-49
2023/01/25 09:23:43;;;;;;;16.40;9.02;;;5.40;56.50;;;;;;5038042;28;20060;-47
2023/01/25 09:26:14;;;;;;;15.65;8.80;;;5.40;56.50;;;;;;5038553;28;20064;-46
2023/01/25 09:28:42;;;;;;;14.65;8.52;;;5.50;57.10;;;;;;5035948;28;20076;-45
2023/01/25 09:31:10;;;;;;;16.23;8.88;;;5.40;56.60;;;;;;5038110;28;20049;-47
2023/01/25 09:33:40;;;;;;;16.52;9.27;;;5.50;56.70;;;;;;5036866;28;20045;-48
2023/01/25 09:36:08;;;;;;;13.77;8.30;;;5.50;56.70;;;;;;5036517;28;20056;-47
2023/01/25 09:38:35;;;;;;;15.65;8.75;;;5.40;56.60;;;;;;5037455;28;20048;-43
2023/01/25 09:41:14;;;;;;;18.08;9.13;;;5.40;56.60;;;;;;5040582;28;20059;-44
2023/01/25 09:43:52;;;;;;;20.20;10.23;;;5.50;56.60;;;;;;5029312;28;20052;-47
2023/01/25 09:46:31;;;;;;;14.95;9.27;;;5.50;56.60;;;;;;5036298;28;20063;-48
2023/01/25 09:49:10;;;;;;;16.17;9.20;;;5.40;56.50;;;;;;5039272;28;20057;-48
2023/01/25 09:51:53;;;;;;;18.60;9.32;;;5.50;56.60;;;;;;5039712;28;20049;-47
2023/01/25 09:54:21;;;;;;;17.73;9.97;;;5.50;56.60;;;;;;5033626;28;20053;-50
2023/01/25 09:56:51;;;;;;;16.80;9.13;;;5.50;56.60;;;;;;5039301;28;20053;-47
2023/01/25 09:59:25;;;;;;;16.95;9.27;;;5.50;56.60;;;;;;5040474;28;20441;-49
2023/01/25 10:01:57;;;;;;;15.90;8.82;;;5.50;56.70;;;;;;5039713;28;20044;-47
2023/01/25 10:04:28;;;;;;;17.98;9.63;;;5.50;56.70;;;;;;5036741;28;20060;-48
2023/01/25 10:07:02;;;;;;;16.67;9.45;;;5.50;56.70;;;;;;5037667;28;20064;-45
2023/01/25 10:09:41;;;;;;;14.30;7.95;;;5.50;56.70;;;;;;5038001;28;20482;-45
2023/01/25 10:12:16;;;;;;;15.90;8.75;;;5.50;56.70;;;;;;5038206;28;20500;-50
2023/01/25 10:14:43;;;;;;;15.73;8.95;;;5.50;56.70;;;;;;5040856;28;20053;-46
2023/01/25 10:17:18;;;;;;;17.00;8.93;;;5.50;56.70;;;;;;5039567;28;20056;-46
2023/01/25 10:20:03;;;;;;;16.52;8.68;;;5.50;56.70;;;;;;5040346;28;20432;-48
2023/01/25 10:22:39;;;;;;;19.45;10.20;;;5.50;56.70;;;;;;5035928;28;20060;-45
2023/01/25 10:25:24;;;;;;;15.15;9.13;;;5.50;56.60;;;;;;5038204;28;20535;-48
2023/01/25 10:28:04;;;;;;;15.55;8.32;;;5.50;56.60;;;;;;5037220;28;20065;-44
2023/01/25 10:30:39;;;;;;;13.05;7.72;;;5.50;56.60;;;;;;5040933;28;20045;-45
2023/01/25 10:33:15;;;;;;;16.27;8.82;;;5.50;57.10;;;;;;5036278;28;20075;-47
2023/01/25 10:35:45;;;;;;;15.02;8.48;;;5.50;56.60;;;;;;5040004;28;20056;-45
2023/01/25 10:38:20;;;;;;;16.27;9.50;;;5.50;56.60;;;;;;5038720;28;20489;-47
2023/01/25 10:40:53;;;;;;;17.17;9.25;;;5.50;56.70;;;;;;5038197;28;20052;-46
2023/01/25 10:43:22;;;;;;;16.65;8.48;;;5.50;56.70;;;;;;5033991;28;20056;-46
2023/01/25 10:45:50;;;;;;;16.40;9.18;;;5.50;56.70;;;;;;5040473;28;20468;-47
2023/01/25 10:48:22;;;;;;;18.75;9.85;;;5.50;56.70;;;;;;5034574;28;20068;-49
2023/01/25 10:50:52;;;;;;;17.15;9.98;;;5.50;56.70;;;;;;5039167;28;20508;-48
2023/01/25 10:53:27;;;;;;;16.33;8.48;;;5.50;56.60;;;;;;5036408;28;20049;-44
2023/01/25 10:56:00;;;;;;;18.15;10.15;;;5.60;56.70;;;;;;5034927;28;20056;-45
2023/01/25 10:58:33;;;;;;;17.77;9.48;;;5.50;56.60;;;;;;5037036;28;20045;-49
2023/01/25 11:01:01;;;;;;;16.00;9.20;;;5.50;56.60;;;;;;5038978;28;20045;-45
2023/01/25 11:03:37;;;;;;;16.70;9.52;;;5.50;56.60;;;;;;5037474;28;20049;-46
2023/01/25 11:06:06;;;;;;;16.73;9.18;;;5.50;56.60;;;;;;5039802;28;20049;-47
2023/01/25 11:08:35;;;;;;;18.88;10.20;;;5.50;56.60;;;;;;5038559;28;20063;-46
2023/01/25 11:11:22;;;;;;;17.58;10.07;;;5.50;56.70;;;;;;5040256;28;20477;-47
2023/01/25 11:13:50;;;;;;;21.48;10.25;;;5.50;56.70;;;;;;5038365;28;20052;-45
2023/01/25 11:16:27;;;;;;;18.00;9.98;;;5.50;56.70;;;;;;5042007;28;20063;-47
2023/01/25 11:18:58;;;;;;;17.02;9.25;;;5.50;56.80;;;;;;5041155;28;20053;-46
2023/01/25 11:21:26;;;;;;;15.35;9.25;;;5.60;56.80;;;;;;5043407;28;20056;-46
2023/01/25 11:24:14;;;;;;;21.45;12.35;;;5.60;56.80;;;;;;5039171;28;20061;-45
2023/01/25 11:26:43;;;;;;;28.83;14.23;;;5.60;56.90;;;;;;5037641;28;20413;-44
2023/01/25 11:29:16;;;;;;;26.27;14.73;;;5.60;56.80;;;;;;5043157;28;20049;-48
2023/01/25 11:31:50;;;;;;;21.83;11.70;;;5.60;56.80;;;;;;5044744;28;20056;-48
2023/01/25 11:34:24;;;;;;;25.02;13.52;;;5.50;56.70;;;;;;5037973;28;20049;-45
2023/01/25 11:37:08;;;;;;;25.10;11.57;;;5.60;56.80;;;;;;5043611;28;20045;-47
2023/01/25 11:39:48;;;;;;;28.67;12.85;;;5.50;56.70;;;;;;5039702;28;20053;-47
2023/01/25 11:42:26;;;;;;;31.08;11.77;;;5.50;56.70;;;;;;5043911;28;20056;-47
2023/01/25 11:45:14;;;;;;;23.15;12.63;;;5.50;56.60;;;;;;5040166;28;20052;-45
2023/01/25 11:47:54;;;;;;;21.80;11.88;;;5.50;56.70;;;;;;5044487;28;20068;-44
2023/01/25 11:50:31;;;;;;;18.90;10.40;;;5.50;56.80;;;;;;5044667;28;20465;-46
2023/01/25 11:53:32;;;;;;;24.77;12.73;;;5.50;56.90;;;;;;5043743;28;20048;-46
2023/01/25 11:56:07;;;;;;;28.02;11.68;;;5.50;57.00;;;;;;5032480;28;20633;-46
2023/01/25 11:59:02;;;;;;;24.10;13.18;;;5.50;56.90;;;;;;5041266;28;20057;-48
2023/01/25 12:01:38;;;;;;;22.35;11.77;;;5.50;57.00;;;;;;5034603;28;20060;-45
2023/01/25 12:04:38;;;;;;;21.05;11.88;;;5.50;57.00;;;;;;5042205;28;20053;-46
2023/01/25 12:07:14;;;;;;;30.50;14.82;;;5.50;57.00;;;;;;5042886;28;20067;-48
2023/01/25 12:09:57;;;;;;;22.85;13.00;;;5.50;57.10;;;;;;5041814;28;20056;-43
2023/01/25 12:12:40;;;;;;;25.35;13.57;;;5.50;57.10;;;;;;5043399;28;20069;-44
2023/01/25 12:15:37;;;;;;;32.53;15.57;;;5.50;57.00;;;;;;5042484;28;20076;-51
2023/01/25 12:18:33;;;;;;;25.70;14.15;;;5.60;57.10;;;;;;5031377;28;20053;-44
2023/01/25 12:21:06;;;;;;;25.48;13.07;;;5.50;57.00;;;;;;5044027;28;20044;-50
2023/01/25 12:23:46;;;;;;;25.33;13.73;;;5.50;56.90;;;;;;5042668;28;20057;-47
2023/01/25 12:26:23;;;;;;;23.33;11.93;;;5.50;56.90;;;;;;5040891;28;20053;-45
2023/01/25 12:28:57;;;;;;;24.00;12.65;;;5.60;57.00;;;;;;5042243;28;20060;-45
2023/01/25 12:31:26;;;;;;;;;;;5.50;57.00;;;;;;5043569;28;20051;-48
2023/01/25 12:33:58;;;;;;;26.70;13.30;;;5.60;57.10;;;;;;5043281;28;19935;-47
2023/01/25 12:36:31;;;;;;;28.80;14.30;;;5.60;56.90;;;;;;5036249;28;20061;-43
2023/01/25 12:39:04;;;;;;;25.52;13.82;;;5.50;56.80;;;;;;5043383;28;20061;-46
2023/01/25 12:41:38;;;;;;;26.08;14.88;;;5.50;56.80;;;;;;5042085;28;20516;-47
2023/01/25 12:44:08;;;;;;;;;;;5.50;56.90;;;;;;5042930;28;20049;-45
2023/01/25 12:46:40;;;;;;;27.10;14.93;;;5.50;56.90;;;;;;5037420;28;19925;-45
2023/01/25 12:49:16;;;;;;;31.08;15.85;;;5.50;56.80;;;;;;5043352;28;20057;-47
2023/01/25 12:51:45;;;;;;;66.70;17.73;;;5.50;56.90;;;;;;5043214;28;20394;-48
2023/01/25 12:54:20;;;;;;;47.67;18.27;;;5.50;57.00;;;;;;5041707;28;20053;-46
2023/01/25 12:56:57;;;;;;;89.25;20.10;;;5.40;56.90;;;;;;5040581;28;20063;-46
2023/01/25 12:59:33;;;;;;;51.83;18.50;;;5.40;57.00;;;;;;5043099;28;20057;-48